WetterOnline ( http://www.wetteronline.de )

Wetter aktuell Erzgebirge/Ost (in 800m)

Aktuelles Wetter: Zinnwald (882m)

6-stündlich | Neueste Meldungen
Ortszeit Temperatur Wetter
So, 22.07. 8:00 14.7° C bewölkt
So, 22.07. 2:00 16.2° C bedeckt
Sa, 21.07. 20:00 19.8° C wolkenlos
Sa, 21.07. 14:00 24.3° C leicht bewölkt
Sa, 21.07. 8:00 16.6° C wolkenlos
Sa, 21.07. 2:00 15.9° C wolkenlos
Fr, 20.07. 20:00 20.2° C wolkenlos
Fr, 20.07. 14:00 20.6° C wolkig
Ortszeit Temperatur Wetter
So, 22.07. 12:30 20.4° C wolkig
So, 22.07. 12:10 20.5° C wolkig
So, 22.07. 12:00 20.4° C bewölkt
So, 22.07. 11:50 20.4° C bewölkt
So, 22.07. 11:40 19.9° C wolkig
So, 22.07. 11:30 19.1° C wolkig
So, 22.07. 11:00 19.3° C leicht bewölkt
So, 22.07. 10:30 18.5° C bewölkt
So, 22.07. 10:00 17.6° C wolkig
So, 22.07. 9:30 17.1° C leicht bewölkt
Ortszeit Relative Feuchte Sichtweite
So, 22.07. 8:00 88% 5.0 km
So, 22.07. 2:00 57% 45 km
Sa, 21.07. 20:00 49% 30 km
Sa, 21.07. 14:00 37% 18 km
Sa, 21.07. 8:00 61% 19 km
Sa, 21.07. 2:00 54% 28 km
Fr, 20.07. 20:00 44% 45 km
Fr, 20.07. 14:00 45% 40 km
Ortszeit Relative Feuchte Sichtweite
So, 22.07. 12:30 54% 18 km
So, 22.07. 12:10 53% -
So, 22.07. 12:00 51% 25 km
So, 22.07. 11:50 51% -
So, 22.07. 11:40 52% -
So, 22.07. 11:30 57% 26 km
So, 22.07. 11:00 57% 25 km
So, 22.07. 10:30 58% 27 km
So, 22.07. 10:00 71% 17 km
So, 22.07. 9:30 75% 12 km
Ortszeit Niederschlagsmenge Niederschlagsart
So, 22.07. 8:00 0.0 l/m2 in 12 Std. -
So, 22.07. 2:00 0.0 l/m2 in 6 Std. -
Sa, 21.07. 20:00 0.0 l/m2 in 12 Std. -
Sa, 21.07. 14:00 0.0 l/m2 in 6 Std. -
Sa, 21.07. 8:00 0.0 l/m2 in 12 Std. -
Sa, 21.07. 2:00 0.0 l/m2 in 6 Std. -
Fr, 20.07. 20:00 0.0 l/m2 in 12 Std. -
Fr, 20.07. 14:00 0.0 l/m2 in 6 Std. -
Ortszeit Niederschlagsmenge Niederschlagsart
So, 22.07. 12:30 0.0 l/m2 in 1 Std. -
So, 22.07. 12:10 keine Meldung -
So, 22.07. 12:00 0.0 l/m2 in 1 Std. -
So, 22.07. 11:50 keine Meldung -
So, 22.07. 11:40 keine Meldung -
So, 22.07. 11:30 0.0 l/m2 in 1 Std. -
So, 22.07. 11:00 0.0 l/m2 in 1 Std. -
So, 22.07. 10:30 0.0 l/m2 in 1 Std. -
So, 22.07. 10:00 0.0 l/m2 in 1 Std. -
So, 22.07. 9:30 0.0 l/m2 in 1 Std. -
Ortszeit Stärke Spitze Richtung
km/h Bft. km/h Grad Sektor
So, 22.07. 8:00 18 3 25 310° NW
So, 22.07. 2:00 7 2 36 40° NO
Sa, 21.07. 20:00 22 4 36 10° N
Sa, 21.07. 14:00 11 2 29 180° S
Sa, 21.07. 8:00 18 3 32 160° S
Sa, 21.07. 2:00 13 3 24 140° SO
Fr, 20.07. 20:00 13 3 24 30° NO
Fr, 20.07. 14:00 11 2 22 20° N
Ortszeit Stärke Spitze Richtung
km/h Bft. km/h Grad Sektor
So, 22.07. 12:30 26 4 41 360° N
So, 22.07. 12:10 25 4 - 20° N
So, 22.07. 12:00 25 4 40 360° N
So, 22.07. 11:50 25 4 - 360° N
So, 22.07. 11:40 28 4 - 360° N
So, 22.07. 11:30 26 4 39 350° N
So, 22.07. 11:00 25 4 36 340° N
So, 22.07. 10:30 22 4 33 350° N
So, 22.07. 10:00 22 4 32 330° NW
So, 22.07. 9:30 18 3 29 330° NW
Ortszeit Untergrenze Bedeckung Gattung
total tief tief mittel hoch
So, 22.07. 8:00 4500 m 8/8 6/8 - - -
So, 22.07. 2:00 1800 m 8/8 8/8 - - -
Sa, 21.07. 20:00 - 0/8 0/8 - - -
Sa, 21.07. 14:00 2100 m 3/8 3/8 - - -
Sa, 21.07. 8:00 - 0/8 0/8 - - -
Sa, 21.07. 2:00 - 0/8 0/8 - - -
Fr, 20.07. 20:00 - 0/8 0/8 - - -
Fr, 20.07. 14:00 1500 m 6/8 6/8 - - -
Ortszeit Bedeckungsgrad in Achtel und Wolkenuntergrenze
So, 22.07. 12:30 1(1020m) 7(5100m)
So, 22.07. 12:10 1(1020m) 2(3300m) 8(4800m)
So, 22.07. 12:00 1(3300m) 7(4800m)
So, 22.07. 11:50 1(3300m) 7(4800m)
So, 22.07. 11:40 1(930m) 8(5100m)
So, 22.07. 11:30 1(930m) 7(5100m) 7(6000m)
So, 22.07. 11:00 1(870m) 7(4800m)
So, 22.07. 10:30 7(4800m) 7(4800m)
So, 22.07. 10:00 1(510m) 7(4800m)
So, 22.07. 9:30 2(4800m)
Ortszeit Stationsdruck (hPa) Tendenz (hPa in 3 Std.)
So, 22.07. 8:00 914 + 0,4
So, 22.07. 2:00 914 + 0,2
Sa, 21.07. 20:00 913 - 0,1
Sa, 21.07. 14:00 913 - 0,5
Sa, 21.07. 8:00 914 - 0,5
Sa, 21.07. 2:00 915 - 0,2
Fr, 20.07. 20:00 915 - 0,7
Fr, 20.07. 14:00 916 - 0,7
Ortszeit Stationsdruck (hPa) Tendenz (hPa in 3 Std.)
So, 22.07. 12:30 915 + 0,7
So, 22.07. 12:10 914 keine Meldung
So, 22.07. 12:00 914 + 0,6
So, 22.07. 11:50 914 keine Meldung
So, 22.07. 11:40 914 keine Meldung
So, 22.07. 11:30 914 + 0,4
So, 22.07. 11:00 914 + 0,5
So, 22.07. 10:30 914 + 0,5
So, 22.07. 10:00 914 + 0,5
So, 22.07. 9:30 914 + 0,3
Ortszeit Schneehöhe (cm)
So, 22.07. 8:00 -
So, 22.07. 2:00 -
Sa, 21.07. 20:00 -
Sa, 21.07. 14:00 -
Sa, 21.07. 8:00 -
Sa, 21.07. 2:00 -
Fr, 20.07. 20:00 -
Fr, 20.07. 14:00 -
Ortszeit Schneehöhe (cm)
So, 22.07. 12:30 -
So, 22.07. 12:10 -
So, 22.07. 12:00 -
So, 22.07. 11:50 -
So, 22.07. 11:40 -
So, 22.07. 11:30 -
So, 22.07. 11:00 -
So, 22.07. 10:30 -
So, 22.07. 10:00 -
So, 22.07. 9:30 -
Link zu dieser Seite / Seite empfehlen

Das Wetter in ...